createdAt,value
2019-03-24T00:01:41.065Z,53.20
2019-03-24T00:04:04.807Z,53.18
2019-03-24T00:06:32.836Z,53.36
2019-03-24T00:09:00.859Z,53.15
2019-03-24T00:11:28.932Z,52.90
2019-03-24T00:13:56.972Z,52.76
2019-03-24T00:16:25.480Z,52.74
2019-03-24T00:18:53.585Z,52.73
2019-03-24T00:21:21.614Z,53.03
2019-03-24T00:23:49.654Z,52.82
2019-03-24T00:26:17.690Z,52.88
2019-03-24T00:28:45.784Z,52.64
2019-03-24T00:31:13.900Z,52.71
2019-03-24T00:33:41.980Z,52.56
2019-03-24T00:36:10.064Z,52.36
2019-03-24T00:38:38.076Z,52.36
2019-03-24T00:41:06.846Z,52.41
2019-03-24T00:43:34.873Z,52.23
2019-03-24T00:46:02.950Z,52.54
2019-03-24T00:48:31.014Z,52.29
2019-03-24T00:50:59.019Z,52.17
2019-03-24T00:53:27.037Z,52.26
2019-03-24T00:55:55.098Z,52.25
2019-03-24T00:58:23.230Z,52.06
2019-03-24T01:00:51.417Z,52.25
2019-03-24T01:03:19.537Z,52.81
2019-03-24T01:05:47.571Z,52.32
2019-03-24T01:08:15.574Z,52.19
2019-03-24T01:10:43.641Z,52.52
2019-03-24T01:13:11.659Z,52.26
2019-03-24T01:15:47.348Z,52.26
2019-03-24T01:18:09.443Z,52.25
2019-03-24T01:20:37.462Z,52.31
2019-03-24T01:23:05.483Z,52.10
2019-03-24T01:25:33.508Z,52.33
2019-03-24T01:28:01.534Z,51.92
2019-03-24T01:30:29.571Z,51.95
2019-03-24T01:32:57.596Z,52.25
2019-03-24T01:35:25.608Z,51.80
2019-03-24T01:37:53.661Z,52.11
2019-03-24T01:40:21.783Z,52.06
2019-03-24T01:42:49.799Z,52.14
2019-03-24T01:45:17.862Z,51.87
2019-03-24T01:47:45.888Z,51.92
2019-03-24T01:50:13.979Z,51.72
2019-03-24T01:52:42.114Z,52.03
2019-03-24T01:55:10.157Z,51.96
2019-03-24T01:57:38.175Z,51.77
2019-03-24T02:00:06.492Z,51.65
2019-03-24T02:02:34.520Z,51.41
2019-03-24T02:05:02.616Z,51.85
2019-03-24T02:07:30.659Z,51.85
2019-03-24T02:09:58.723Z,51.83
2019-03-24T02:12:26.787Z,51.47
2019-03-24T02:14:54.874Z,51.43
2019-03-24T02:17:23.315Z,51.38
2019-03-24T02:19:51.349Z,51.39
2019-03-24T02:22:19.364Z,51.46
2019-03-24T02:24:47.462Z,51.56
2019-03-24T02:27:15.748Z,51.43
2019-03-24T02:29:43.879Z,51.25
2019-03-24T02:32:11.967Z,51.19
2019-03-24T02:34:39.978Z,51.28
2019-03-24T02:37:08.016Z,51.46
2019-03-24T02:39:36.113Z,51.44
2019-03-24T02:42:04.116Z,51.34
2019-03-24T02:44:32.177Z,51.27
2019-03-24T02:47:00.226Z,51.08
2019-03-24T02:49:28.241Z,51.11
2019-03-24T02:51:56.256Z,51.25
2019-03-24T02:54:24.363Z,51.01
2019-03-24T02:56:52.398Z,51.12
2019-03-24T02:59:20.437Z,50.87
2019-03-24T03:01:48.475Z,50.72
2019-03-24T03:04:16.510Z,50.96
2019-03-24T03:06:44.554Z,50.86
2019-03-24T03:09:12.613Z,51.08
2019-03-24T03:11:40.770Z,50.90
2019-03-24T03:14:08.812Z,50.92
2019-03-24T03:16:38.607Z,50.87
2019-03-24T03:19:06.644Z,51.06
2019-03-24T03:21:34.702Z,50.94
2019-03-24T03:24:02.955Z,50.96
2019-03-24T03:26:30.990Z,50.87
2019-03-24T03:28:59.027Z,50.81
2019-03-24T03:31:27.174Z,50.88
2019-03-24T03:33:55.320Z,50.67
2019-03-24T03:36:23.371Z,50.76
2019-03-24T03:38:51.398Z,50.66
2019-03-24T03:41:19.445Z,50.86
2019-03-24T03:43:47.477Z,50.65
2019-03-24T03:46:15.497Z,50.77
2019-03-24T03:48:43.596Z,50.89
2019-03-24T03:51:11.686Z,50.71
2019-03-24T03:53:39.726Z,50.79
2019-03-24T03:56:07.748Z,50.65
2019-03-24T03:58:35.809Z,50.72
2019-03-24T04:01:03.825Z,50.60
2019-03-24T04:03:31.838Z,50.46
2019-03-24T04:06:00.030Z,50.59
2019-03-24T04:08:28.047Z,50.57
2019-03-24T04:10:56.058Z,50.59
2019-03-24T04:13:24.227Z,50.67
2019-03-24T04:15:52.257Z,50.56
2019-03-24T04:18:20.269Z,50.59
2019-03-24T04:20:48.294Z,50.58
2019-03-24T04:23:16.749Z,50.49
2019-03-24T04:25:44.792Z,50.42
2019-03-24T04:28:12.797Z,50.31
2019-03-24T04:30:40.818Z,50.41
2019-03-24T04:33:09.006Z,50.41
2019-03-24T04:35:37.108Z,50.50
2019-03-24T04:38:05.136Z,50.51
2019-03-24T04:40:33.184Z,50.53
2019-03-24T04:43:01.214Z,50.57
2019-03-24T04:45:29.238Z,50.23
2019-03-24T04:47:57.329Z,50.49
2019-03-24T04:50:25.362Z,50.39
2019-03-24T04:52:53.375Z,50.35
2019-03-24T04:55:21.434Z,50.28
2019-03-24T04:57:49.454Z,50.33
2019-03-24T05:00:17.464Z,50.36
2019-03-24T05:02:45.518Z,50.30
2019-03-24T05:05:13.561Z,50.32
2019-03-24T05:07:41.607Z,50.13
2019-03-24T05:10:09.673Z,50.29
2019-03-24T05:12:37.695Z,50.04
2019-03-24T05:15:05.719Z,50.19
2019-03-24T05:17:33.854Z,50.06
2019-03-24T05:20:01.904Z,50.23
2019-03-24T05:22:29.924Z,50.10
2019-03-24T05:24:57.972Z,50.46
2019-03-24T05:27:25.984Z,50.30
2019-03-24T05:29:54.014Z,50.37
2019-03-24T05:32:22.379Z,50.39
2019-03-24T05:34:53.158Z,50.40
2019-03-24T05:37:21.192Z,50.49
2019-03-24T05:39:49.316Z,50.56
2019-03-24T05:42:17.437Z,50.57
2019-03-24T05:44:45.417Z,50.46
2019-03-24T05:47:13.470Z,50.59
2019-03-24T05:49:41.505Z,50.27
2019-03-24T05:52:09.545Z,50.46
2019-03-24T05:54:37.593Z,50.52
2019-03-24T05:57:05.609Z,50.57
2019-03-24T05:59:34.030Z,50.59
2019-03-24T06:02:02.134Z,50.35
2019-03-24T06:04:30.151Z,50.30
2019-03-24T06:06:58.202Z,50.51
2019-03-24T06:09:26.220Z,50.67
2019-03-24T06:11:54.248Z,50.66
2019-03-24T06:14:22.491Z,50.41
2019-03-24T06:16:50.650Z,50.42
2019-03-24T06:19:18.916Z,50.67
2019-03-24T06:21:46.937Z,50.46
2019-03-24T06:24:15.089Z,50.42
2019-03-24T06:26:43.153Z,50.38
2019-03-24T06:29:11.243Z,50.34
2019-03-24T06:31:39.557Z,50.25
2019-03-24T06:34:07.572Z,50.41
2019-03-24T06:36:35.585Z,50.40
2019-03-24T06:39:04.751Z,50.29
2019-03-24T06:41:32.931Z,50.40
2019-03-24T06:44:00.977Z,50.23
2019-03-24T06:46:29.023Z,50.31
2019-03-24T06:48:57.095Z,50.25
2019-03-24T06:51:26.047Z,50.34
2019-03-24T06:53:54.222Z,50.26
2019-03-24T06:56:22.269Z,50.48
2019-03-24T06:58:50.282Z,50.35
2019-03-24T07:01:18.362Z,50.26
2019-03-24T07:03:46.571Z,50.40
2019-03-24T07:06:14.614Z,50.19
2019-03-24T07:08:42.642Z,50.39
2019-03-24T07:11:13.675Z,50.25
2019-03-24T07:13:40.625Z,50.19
2019-03-24T07:16:08.655Z,50.26
2019-03-24T07:18:36.701Z,50.22
2019-03-24T07:21:04.745Z,50.21
2019-03-24T07:23:32.781Z,50.32
2019-03-24T07:26:00.823Z,50.35
2019-03-24T07:28:28.834Z,50.20
2019-03-24T07:30:56.851Z,50.16
2019-03-24T07:33:25.059Z,49.92
2019-03-24T07:35:53.089Z,50.00
2019-03-24T07:38:21.103Z,49.89
2019-03-24T07:40:49.177Z,50.66
2019-03-24T07:43:17.190Z,51.27
2019-03-24T07:45:45.262Z,51.41
2019-03-24T07:48:19.052Z,51.58
2019-03-24T07:50:44.957Z,51.53
2019-03-24T07:53:13.009Z,51.97
2019-03-24T07:55:41.168Z,51.49
2019-03-24T07:58:09.188Z,51.54
2019-03-24T08:00:37.240Z,51.68
2019-03-24T08:03:05.298Z,53.65
2019-03-24T08:05:33.394Z,53.08
2019-03-24T08:08:01.446Z,52.34
2019-03-24T08:10:29.486Z,52.35
2019-03-24T08:12:57.574Z,51.48
2019-03-24T08:15:25.601Z,51.42
2019-03-24T08:17:53.702Z,51.03
2019-03-24T08:20:21.737Z,50.98
2019-03-24T08:22:49.756Z,50.37
2019-03-24T08:25:19.166Z,50.09
2019-03-24T08:27:47.367Z,49.89
2019-03-24T08:30:15.388Z,49.73
2019-03-24T08:32:43.484Z,49.36
2019-03-24T08:35:11.576Z,49.19
2019-03-24T08:37:39.660Z,49.02
2019-03-24T08:40:07.705Z,49.04
2019-03-24T08:42:35.776Z,48.94
2019-03-24T08:45:03.776Z,48.59
2019-03-24T08:47:31.828Z,48.37
2019-03-24T08:50:00.020Z,47.98
2019-03-24T08:52:28.165Z,48.04
2019-03-24T08:54:56.204Z,47.75
2019-03-24T08:57:24.229Z,47.76
2019-03-24T08:59:52.254Z,47.58
2019-03-24T09:02:20.493Z,47.69
2019-03-24T09:04:48.541Z,47.71
2019-03-24T09:07:16.624Z,47.90
2019-03-24T09:09:44.688Z,47.57
2019-03-24T09:12:12.726Z,47.18
2019-03-24T09:14:40.770Z,46.66
2019-03-24T09:17:08.804Z,46.75
2019-03-24T09:19:36.845Z,46.56
2019-03-24T09:22:04.927Z,46.60
2019-03-24T09:24:32.990Z,46.46
2019-03-24T09:27:01.019Z,46.62
2019-03-24T09:29:29.095Z,46.55
2019-03-24T09:31:57.126Z,46.25
2019-03-24T09:34:25.154Z,46.36
2019-03-24T09:36:53.461Z,46.28
2019-03-24T09:39:21.482Z,46.09
2019-03-24T09:41:49.513Z,46.08
2019-03-24T09:44:17.547Z,46.26
2019-03-24T09:46:45.602Z,46.37
2019-03-24T09:49:13.714Z,46.61
2019-03-24T09:51:41.803Z,46.92
2019-03-24T09:54:09.811Z,46.68
2019-03-24T09:56:37.860Z,46.56
2019-03-24T09:59:05.956Z,46.52
2019-03-24T10:01:33.975Z,46.30
2019-03-24T10:04:02.054Z,46.67
2019-03-24T10:06:30.110Z,46.83
2019-03-24T10:08:58.156Z,46.95
2019-03-24T10:11:26.263Z,46.69
2019-03-24T10:13:54.298Z,46.64
2019-03-24T10:16:22.334Z,47.03
2019-03-24T10:18:50.565Z,46.90
2019-03-24T10:21:18.592Z,46.68
2019-03-24T10:23:46.627Z,46.29
2019-03-24T10:26:14.709Z,46.47
2019-03-24T10:28:42.787Z,46.42
2019-03-24T10:31:10.938Z,46.60
2019-03-24T10:33:39.108Z,45.97
2019-03-24T10:36:07.168Z,45.82
2019-03-24T10:38:35.198Z,46.09
2019-03-24T10:41:03.303Z,46.15
2019-03-24T10:43:31.382Z,46.26
2019-03-24T10:45:59.426Z,46.92
2019-03-24T10:48:33.724Z,46.38
2019-03-24T10:50:57.251Z,45.42
2019-03-24T10:53:25.268Z,45.78
2019-03-24T10:55:53.304Z,46.20
2019-03-24T10:58:21.364Z,45.97
2019-03-24T11:00:49.402Z,45.58
2019-03-24T11:03:17.433Z,45.41
2019-03-24T11:05:45.521Z,45.75
2019-03-24T11:08:13.539Z,45.81
2019-03-24T11:10:41.565Z,45.98
2019-03-24T11:13:09.686Z,47.44
2019-03-24T11:15:37.720Z,48.86
2019-03-24T11:18:05.799Z,50.66
2019-03-24T11:20:33.865Z,50.37
2019-03-24T11:23:01.891Z,50.06
2019-03-24T11:25:29.914Z,50.09
2019-03-24T11:27:58.005Z,49.71
2019-03-24T11:30:26.146Z,50.39
2019-03-24T11:32:54.832Z,50.19
2019-03-24T11:35:22.895Z,50.94
2019-03-24T11:37:50.967Z,51.14
2019-03-24T11:40:19.011Z,51.81
2019-03-24T11:42:47.059Z,53.49
2019-03-24T11:45:15.082Z,54.44
2019-03-24T11:47:43.108Z,55.24
2019-03-24T11:50:11.159Z,55.13
2019-03-24T11:52:39.184Z,55.06
2019-03-24T11:55:07.327Z,54.72
2019-03-24T11:57:35.554Z,55.21
2019-03-24T12:00:03.576Z,52.79
2019-03-24T12:02:31.599Z,53.40
2019-03-24T12:04:59.889Z,54.59
2019-03-24T12:07:27.930Z,53.21
2019-03-24T12:09:56.279Z,53.17
2019-03-24T12:12:24.512Z,52.97
2019-03-24T12:14:52.626Z,52.29
2019-03-24T12:17:20.648Z,51.88
2019-03-24T12:19:56.424Z,52.45
2019-03-24T12:22:18.539Z,51.89
2019-03-24T12:24:46.592Z,51.50
2019-03-24T12:27:14.706Z,51.56
2019-03-24T12:29:42.894Z,51.03
2019-03-24T12:32:10.942Z,50.49
2019-03-24T12:34:38.965Z,50.26
2019-03-24T12:37:07.313Z,50.24
2019-03-24T12:39:35.317Z,50.24
2019-03-24T12:42:03.410Z,50.42
2019-03-24T12:44:31.455Z,50.06
2019-03-24T12:46:59.490Z,49.83
2019-03-24T12:49:27.568Z,49.66
2019-03-24T12:51:55.605Z,49.77
2019-03-24T12:54:25.446Z,49.76
2019-03-24T12:56:53.432Z,49.40
2019-03-24T12:59:21.522Z,49.09
2019-03-24T13:01:49.595Z,49.58
2019-03-24T13:04:17.626Z,48.30
2019-03-24T13:06:45.684Z,48.88
2019-03-24T13:09:13.718Z,49.21
2019-03-24T13:11:41.777Z,49.52
2019-03-24T13:14:09.791Z,49.55
2019-03-24T13:16:37.856Z,49.57
2019-03-24T13:19:05.941Z,48.87
2019-03-24T13:21:34.013Z,48.48
2019-03-24T13:24:02.145Z,48.65
2019-03-24T13:26:30.176Z,48.97
2019-03-24T13:28:58.183Z,48.82
2019-03-24T13:31:26.310Z,48.82
2019-03-24T13:33:54.352Z,48.95
2019-03-24T13:36:22.400Z,48.74
2019-03-24T13:38:50.451Z,48.41
2019-03-24T13:41:18.560Z,48.44
2019-03-24T13:43:46.676Z,48.78
2019-03-24T13:46:14.725Z,48.67
2019-03-24T13:48:42.777Z,48.65
2019-03-24T13:51:10.836Z,47.86
2019-03-24T13:53:38.886Z,47.83
2019-03-24T13:56:10.309Z,47.91
2019-03-24T13:58:38.452Z,48.27
2019-03-24T14:01:09.661Z,47.75
2019-03-24T14:03:37.757Z,47.90
2019-03-24T14:06:05.790Z,47.77
2019-03-24T14:08:33.862Z,47.41
2019-03-24T14:11:01.975Z,47.57
2019-03-24T14:13:30.028Z,47.49
2019-03-24T14:15:58.095Z,47.12
2019-03-24T14:18:26.152Z,47.61
2019-03-24T14:20:54.213Z,47.94
2019-03-24T14:23:22.389Z,47.62
2019-03-24T14:25:50.750Z,48.19
2019-03-24T14:28:18.841Z,47.99
2019-03-24T14:30:46.884Z,47.46
2019-03-24T14:33:14.972Z,47.72
2019-03-24T14:35:43.082Z,47.70
2019-03-24T14:38:11.072Z,46.87
2019-03-24T14:40:39.237Z,46.64
2019-03-24T14:43:07.488Z,47.02
2019-03-24T14:45:35.509Z,46.99
2019-03-24T14:48:03.569Z,46.92
2019-03-24T14:50:31.653Z,46.89
2019-03-24T14:52:59.802Z,46.88
2019-03-24T14:55:27.891Z,46.90
2019-03-24T14:57:55.932Z,46.88
2019-03-24T15:00:24.151Z,47.21
2019-03-24T15:02:52.228Z,47.29
2019-03-24T15:05:20.280Z,46.68
2019-03-24T15:07:48.339Z,46.66
2019-03-24T15:10:16.383Z,47.16
2019-03-24T15:12:44.428Z,47.65
2019-03-24T15:15:12.540Z,48.07
2019-03-24T15:17:40.608Z,47.96
2019-03-24T15:20:08.810Z,48.48
2019-03-24T15:22:36.885Z,48.82
2019-03-24T15:25:04.971Z,49.03
2019-03-24T15:27:33.001Z,48.76
2019-03-24T15:30:01.046Z,48.72
2019-03-24T15:32:29.111Z,48.66
2019-03-24T15:34:57.329Z,48.55
2019-03-24T15:37:25.423Z,48.38
2019-03-24T15:39:53.445Z,47.97
2019-03-24T15:42:21.478Z,47.77
2019-03-24T15:44:49.581Z,47.40
2019-03-24T15:47:17.603Z,47.39
2019-03-24T15:49:45.631Z,47.54
2019-03-24T15:52:13.688Z,47.47
2019-03-24T15:54:41.728Z,48.02
2019-03-24T15:57:09.756Z,48.08
2019-03-24T15:59:37.816Z,47.86
2019-03-24T16:02:05.872Z,47.90
2019-03-24T16:04:33.920Z,47.80
2019-03-24T16:07:01.974Z,46.98
2019-03-24T16:09:30.139Z,45.95
2019-03-24T16:11:58.205Z,45.03
2019-03-24T16:14:26.288Z,44.57
2019-03-24T16:16:54.338Z,43.92
2019-03-24T16:19:22.376Z,43.54
2019-03-24T16:21:51.275Z,43.27
2019-03-24T16:24:19.388Z,43.66
2019-03-24T16:26:47.499Z,42.90
2019-03-24T16:29:15.756Z,42.76
2019-03-24T16:31:44.017Z,42.61
2019-03-24T16:34:12.127Z,42.31
2019-03-24T16:36:40.351Z,42.49
2019-03-24T16:39:08.372Z,42.97
2019-03-24T16:41:36.477Z,42.83
2019-03-24T16:44:04.658Z,43.89
2019-03-24T16:46:32.713Z,43.70
2019-03-24T16:49:00.730Z,43.69
2019-03-24T16:51:38.156Z,44.23
2019-03-24T16:53:58.615Z,44.38
2019-03-24T16:56:26.667Z,44.59
2019-03-24T16:58:54.698Z,44.84
2019-03-24T17:01:22.726Z,45.07
2019-03-24T17:03:50.770Z,45.11
2019-03-24T17:06:18.808Z,45.54
2019-03-24T17:08:46.842Z,44.94
2019-03-24T17:11:14.928Z,46.29
2019-03-24T17:13:43.047Z,45.87
2019-03-24T17:16:11.138Z,45.77
2019-03-24T17:18:39.181Z,45.82
2019-03-24T17:21:07.219Z,46.23
2019-03-24T17:23:35.238Z,45.92
2019-03-24T17:26:03.439Z,47.04
2019-03-24T17:28:31.485Z,47.16
2019-03-24T17:30:59.495Z,48.08
2019-03-24T17:33:27.532Z,47.64
2019-03-24T17:35:55.738Z,48.31
2019-03-24T17:38:23.739Z,47.27
2019-03-24T17:40:51.788Z,46.98
2019-03-24T17:43:19.833Z,46.59
2019-03-24T17:45:47.910Z,46.74
2019-03-24T17:48:16.008Z,47.08
2019-03-24T17:50:44.051Z,46.83
2019-03-24T17:53:12.104Z,46.75
2019-03-24T17:55:40.173Z,47.82
2019-03-24T17:58:08.240Z,47.10
2019-03-24T18:00:36.353Z,47.94
2019-03-24T18:03:04.572Z,48.93
2019-03-24T18:05:32.622Z,48.85
2019-03-24T18:08:00.688Z,49.16
2019-03-24T18:10:28.841Z,48.83
2019-03-24T18:12:56.870Z,49.29
2019-03-24T18:15:24.924Z,49.53
2019-03-24T18:17:52.963Z,49.60
2019-03-24T18:20:21.003Z,49.88
2019-03-24T18:22:51.802Z,50.04
2019-03-24T18:25:19.942Z,50.06
2019-03-24T18:27:47.982Z,50.76
2019-03-24T18:30:16.077Z,50.25
2019-03-24T18:32:44.279Z,50.85
2019-03-24T18:35:12.382Z,51.03
2019-03-24T18:37:40.511Z,50.40
2019-03-24T18:40:08.539Z,49.25
2019-03-24T18:42:36.584Z,49.07
2019-03-24T18:45:04.653Z,48.58
2019-03-24T18:47:32.751Z,48.43
2019-03-24T18:50:00.845Z,48.43
2019-03-24T18:52:28.969Z,47.81
2019-03-24T18:54:56.988Z,47.49
2019-03-24T18:57:25.018Z,48.12
2019-03-24T18:59:53.087Z,47.48
2019-03-24T19:02:21.174Z,47.07
2019-03-24T19:04:49.368Z,46.95
2019-03-24T19:07:17.412Z,47.09
2019-03-24T19:09:45.477Z,47.03
2019-03-24T19:12:13.553Z,48.34
2019-03-24T19:14:41.558Z,47.35
2019-03-24T19:17:10.206Z,47.38
2019-03-24T19:19:38.432Z,47.10
2019-03-24T19:22:06.517Z,46.96
2019-03-24T19:24:34.637Z,46.79
2019-03-24T19:27:02.722Z,46.86
2019-03-24T19:29:30.796Z,46.82
2019-03-24T19:31:58.984Z,46.61
2019-03-24T19:34:27.102Z,46.61
2019-03-24T19:36:55.139Z,46.58
2019-03-24T19:39:23.170Z,47.09
2019-03-24T19:41:51.240Z,47.07
2019-03-24T19:44:19.388Z,46.92
2019-03-24T19:46:47.573Z,47.19
2019-03-24T19:49:15.712Z,47.13
2019-03-24T19:51:43.718Z,48.10
2019-03-24T19:54:11.756Z,47.45
2019-03-24T19:56:40.031Z,47.08
2019-03-24T19:59:08.138Z,47.54
2019-03-24T20:01:36.195Z,47.40
2019-03-24T20:04:04.328Z,47.21
2019-03-24T20:06:32.365Z,47.48
2019-03-24T20:09:00.394Z,47.34
2019-03-24T20:11:28.447Z,47.46
2019-03-24T20:13:56.588Z,47.38
2019-03-24T20:16:24.695Z,48.23
2019-03-24T20:18:52.857Z,47.64
2019-03-24T20:21:21.153Z,48.10
2019-03-24T20:23:49.298Z,48.67
2019-03-24T20:26:17.347Z,48.61
2019-03-24T20:28:45.441Z,49.02
2019-03-24T20:31:13.528Z,49.08
2019-03-24T20:33:41.675Z,50.03
2019-03-24T20:36:09.862Z,49.39
2019-03-24T20:38:37.915Z,49.35
2019-03-24T20:41:05.992Z,49.65
2019-03-24T20:43:34.041Z,49.42
2019-03-24T20:46:02.367Z,49.65
2019-03-24T20:48:30.431Z,49.68
2019-03-24T20:50:58.530Z,49.65
2019-03-24T20:53:26.654Z,50.19
2019-03-24T20:55:55.027Z,49.98
2019-03-24T20:58:23.066Z,49.89
2019-03-24T21:00:51.143Z,50.01
2019-03-24T21:03:19.291Z,50.29
2019-03-24T21:05:47.365Z,50.59
2019-03-24T21:08:15.422Z,50.39
2019-03-24T21:10:43.541Z,50.01
2019-03-24T21:13:14.049Z,50.22
2019-03-24T21:15:42.175Z,50.62
2019-03-24T21:18:10.264Z,50.34
2019-03-24T21:20:38.409Z,50.59
2019-03-24T21:23:06.704Z,50.44
2019-03-24T21:25:35.249Z,50.50
2019-03-24T21:28:03.319Z,50.97
2019-03-24T21:30:31.446Z,50.85
2019-03-24T21:32:59.529Z,51.15
2019-03-24T21:35:27.642Z,50.58
2019-03-24T21:37:55.769Z,50.75
2019-03-24T21:40:23.887Z,50.30
2019-03-24T21:42:53.367Z,50.39
2019-03-24T21:45:21.466Z,50.97
2019-03-24T21:47:49.558Z,50.63
2019-03-24T21:50:17.618Z,50.42
2019-03-24T21:52:45.877Z,51.48
2019-03-24T21:55:14.022Z,50.93
2019-03-24T21:57:42.169Z,50.59
2019-03-24T22:00:10.409Z,50.75
2019-03-24T22:02:41.587Z,50.76
2019-03-24T22:05:10.748Z,50.85
2019-03-24T22:07:38.877Z,50.83
2019-03-24T22:10:06.937Z,50.58
2019-03-24T22:12:38.043Z,51.10
2019-03-24T22:15:06.095Z,51.12
2019-03-24T22:17:34.392Z,51.54
2019-03-24T22:20:02.449Z,51.47
2019-03-24T22:22:30.552Z,51.41
2019-03-24T22:24:58.575Z,51.54
2019-03-24T22:27:26.659Z,51.50
2019-03-24T22:29:54.803Z,51.50
2019-03-24T22:32:23.420Z,51.60
2019-03-24T22:34:52.620Z,51.57
2019-03-24T22:37:21.124Z,51.59
2019-03-24T22:39:49.555Z,51.55
2019-03-24T22:42:17.893Z,51.56
2019-03-24T22:44:46.109Z,51.45
2019-03-24T22:47:14.148Z,51.44
2019-03-24T22:49:42.145Z,51.23
2019-03-24T22:52:10.236Z,51.30
2019-03-24T22:54:38.288Z,51.24
2019-03-24T22:57:06.312Z,51.19
2019-03-24T22:59:34.389Z,51.30
2019-03-24T23:02:02.500Z,51.60
2019-03-24T23:04:30.637Z,51.78
2019-03-24T23:06:58.817Z,51.64
2019-03-24T23:09:26.893Z,51.76
2019-03-24T23:11:54.937Z,51.85
2019-03-24T23:14:23.190Z,51.65
2019-03-24T23:16:51.313Z,51.70
2019-03-24T23:19:19.377Z,51.01
2019-03-24T23:21:47.470Z,50.85
2019-03-24T23:24:16.110Z,50.64
2019-03-24T23:26:44.337Z,50.54
2019-03-24T23:29:12.416Z,50.63
2019-03-24T23:31:40.465Z,50.65
2019-03-24T23:34:08.481Z,51.06
2019-03-24T23:36:36.548Z,50.67
2019-03-24T23:39:05.603Z,50.77
2019-03-24T23:41:33.642Z,50.66
2019-03-24T23:44:03.894Z,50.63
2019-03-24T23:46:31.696Z,50.25
2019-03-24T23:48:59.801Z,50.23
2019-03-24T23:51:27.907Z,50.30
2019-03-24T23:53:55.980Z,50.22
2019-03-24T23:56:24.057Z,50.22
2019-03-24T23:58:52.113Z,50.09
